METAR Data
IDs: Format: Raw Decoded Include TAF

Data at: 0636 UTC 23 Feb 2019

PAMK 230556Z AUTO 17016KT 10SM OVC036 01/M03 A3006 RMK AO2 SLP183 T00061033 10006 20000 51009 FZRANO
PAMK 230522Z AUTO 17017KT 10SM BKN030 BKN037 OVC075 00/M03 A3006 RMK AO2 FZRANO
PAMK 230510Z AUTO 17017G24KT 10SM BKN028 OVC035 01/M03 A3005 RMK AO2 FZRANO
PAMK 230456Z AUTO 17018G24KT 10SM FEW030 BKN035 OVC044 00/M03 A3006 RMK AO2 PK WND 17030/0410 SLP182 T00001033 FZRANO
PAMK 230356Z AUTO 17023G28KT 10SM OVC036 01/M03 A3004 RMK AO2 PK WND 17029/0257 SLP176 T00061028 FZRANO
PAMK 230256Z AUTO 17019G29KT 10SM FEW023 SCT038 OVC080 01/M02 A3003 RMK AO2 PK WND 18031/0237 SLP174 T00061022 56003 FZRANO
PAMK 230156Z AUTO 17024KT 10SM OVC065 01/M02 A3004 RMK AO2 PK WND 17034/0110 SLP176 T00061022 FZRANO
PAMK 230056Z AUTO 17025G31KT 10SM FEW047 OVC060 01/M02 A3003 RMK AO2 PK WND 17033/0032 SLP173 T00061022 FZRANO
PAMK 222356Z AUTO 16023G30KT 10SM OVC047 00/M02 A3004 RMK AO2 PK WND 16032/2311 SLP177 60000 T00001022 10000 21017 58002 FZRANO
PAMK 222256Z AUTO 16024G31KT 10SM OVC049 00/M03 A3005 RMK AO2 PK WND 17033/2244 SNE11 SLP178 P0000 T00001028 FZRANO
PAMK 222156Z AUTO 16023G30KT 8SM -SN OVC039 M01/M03 A3005 RMK AO2 PK WND 16030/2154 SLP180 P0000 T10061033 FZRANO
PAMK 222056Z AUTO 16020G27KT 9SM -SN SCT038 OVC048 M01/M03 A3005 RMK AO2 PK WND 16028/2017 SLP179 P0000 60000 T10111033 58000 FZRANO
PAMK 221956Z AUTO 15018KT 9SM -SN BKN041 OVC047 M01/M04 A3006 RMK AO2 SNE00B44 SLP184 P0000 T10111039 FZRANO
PAMK 221856Z AUTO 15019KT 9SM -SN OVC043 M02/M04 A3005 RMK AO2 SNB46 SLP181 P0000 T10171039 FZRANO
PAMK 221756Z AUTO 16018G23KT 10SM OVC060 M01/M04 A3005 RMK AO2 PK WND 17028/1716 SLP179 60000 T10111039 11011 21028 56007 FZRANO
PAMK 221656Z AUTO 17019G27KT 10SM SCT065 OVC090 M01/M04 A3005 RMK AO2 PK WND 17032/1615 SLP180 T10111039 FZRANO
PAMK 221556Z AUTO 17023G29KT 10SM OVC070 M01/M04 A3005 RMK AO2 PK WND 17030/1546 SNB37E49 SLP181 P0000 T10111039 FZRANO
PAMK 221456Z AUTO 17023G27KT 10SM FEW070 M02/M04 A3007 RMK AO2 PK WND 16027/1456 SLP186 60000 T10171044 56010 FZRANO
PAMK 221356Z AUTO 17021KT 10SM OVC065 M02/M04 A3008 RMK AO2 PK WND 17028/1344 SLP188 T10171044 FZRANO
PAMK 221256Z AUTO 17019KT 10SM FEW110 M02/M05 A3009 RMK AO2 SNE05 SLP192 P0000 T10221050 FZRANO
PAMK 221156Z AUTO 17020G26KT 10SM -SN BKN065 BKN110 M03/M06 A3010 RMK AO2 PK WND 17027/1145 SNB55 SLP197 P0000 60000 T10281056 11028 21067 58002 FZRANO
PAMK 221056Z AUTO 16015KT 10SM SCT036 OVC090 M03/M06 A3010 RMK AO2 SLP198 T10281056 FZRANO
PAMK 220956Z AUTO 16011KT 10SM BKN037 BKN060 M04/M07 A3011 RMK AO2 SLP198 T10391067 FZRANO
PAMK 220856Z AUTO 17012KT 10SM OVC039 M04/M07 A3011 RMK AO2 SLP199 T10391072 410171067 51007 FZRANO
PAMK 220756Z AUTO 19006KT 10SM OVC039 M06/M08 A3010 RMK AO2 SLP198 T10561078 FZRANO
PAMK 220656Z AUTO 17009KT 10SM FEW039 M07/M09 A3009 RMK AO2 SLP194 T10671089 FZRANO
PAMK 220556Z AUTO 19010KT 10SM OVC041 M04/M07 A3009 RMK AO2 SNE0457 SLP192 60000 T10391067 11022 21039 51018 FZRANO
PAMK 220456Z AUTO 21014KT 9SM -SN OVC041 M03/M06 A3008 RMK AO2 SLP188 P0000 T10281061 FZRANO
PAMK 220356Z AUTO 21014KT 9SM -SN OVC041 M03/M05 A3006 RMK AO2 SNB50 SLP182 P0000 T10281050 FZRANO
PAMK 220256Z AUTO 22014KT 10SM FEW019 M03/M06 A3003 RMK AO2 SLP174 60000 T10331056 51017 FZRANO
PAMK 220056Z AUTO 21016KT 10SM OVC033 M03/M06 A3000 RMK AO2 SNE42 SLP162 P0000 T10281056 FZRANO
PAMK 212356Z AUTO 21016KT 9SM -SN OVC033 M03/M06 A2998 RMK AO2 SLP157 P0000 60000 T10281056 11028 21039 53009 FZRANO
PAMK 212335Z AUTO 20015KT 9SM -SN SCT017 SCT029 OVC035 M03/M05 A2998 RMK AO2 P0000 FZRANO
PAMK 212326Z AUTO 20014KT 8SM -SN BKN017 BKN024 OVC035 M03/M05 A2998 RMK AO2 P0000 FZRANO
PAMK 212314Z AUTO 21012KT 2 1/2SM -SN BR BKN017 BKN026 OVC034 M03/M05 A2998 RMK AO2 VIS 1 1/2V5 P0000 FZRANO
PAMK 212304Z AUTO 21015KT 3SM -SN BR FEW019 BKN024 OVC034 M03/M06 A2998 RMK AO2 P0000 FZRANO
PAMK 212256Z AUTO 21015KT 5SM -SN BR SCT026 OVC034 M03/M06 A2998 RMK AO2 SLP156 P0000 T10331056 FZRANO
PAMK 212156Z AUTO 21017KT 3SM -SN BR FEW024 OVC035 M03/M05 A2996 RMK AO2 SLP149 P0000 T10331050 FZRANO
PAMK 212154Z AUTO 21018KT 4SM -SN BR FEW024 OVC037 M03/M05 A2996 RMK AO2 P0000 FZRANO
PAMK 212133Z AUTO 20017KT 3SM -SN BR BKN027 OVC034 M03/M05 A2995 RMK AO2 P0000 FZRANO
PAMK 212056Z AUTO 20016KT 3SM -SN BR FEW036 OVC047 M03/M05 A2994 RMK AO2 SLP142 P0000 60000 T10331050 53016 FZRANO
PAMK 211956Z AUTO 20015KT 3SM -SN BR SCT035 BKN048 OVC055 M03/M05 A2991 RMK AO2 SLP134 P0000 T10331050 FZRANO
PAMK 211926Z AUTO 20013KT 9SM -SN SCT017 SCT034 OVC048 M03/M06 A2990 RMK AO2 P0000 FZRANO
PAMK 211856Z AUTO 19012KT 7SM -SN SCT017 BKN029 OVC038 M04/M06 A2989 RMK AO2 SLP125 P0000 T10391056 FZRANO
PAMK 211854Z AUTO 19011KT 6SM -SN BR SCT017 BKN029 OVC038 M04/M06 A2989 RMK AO2 P0000 FZRANO
PAMK 211847Z AUTO 19011KT 2 1/2SM -SN BR FEW017 BKN029 OVC038 M04/M06 A2988 RMK AO2 VIS 1 1/2V5 P0000 FZRANO